Pagrindinis puslapis
METAR-TAF:

METAR-TAF

Oro uostai :

Florianopolis, Santa Katarina, Brazilija

platuma: 27-40S, ilguma: 048-33W, Aukštis: 5 m

Dabartinis oras

Ataskaita buvo paskelbta 57 minutes, ne 06:00 UTC
Vėjas 5 kt iš Pietryčių
Temperatūra 14°C
Drėgmė 94%
Slėgis 1022 hPa
Matomumas 10 km arba daugiau
nėra debesų žemiau 1500 m ir nėra kamuolinių lietaus debesų

METAR: SBFL 140600Z 14005KT CAVOK 14/13 Q1022

Laikas: 03:57 (06:57 UTC)

Prognozė

Ataskaita buvo paskelbta 3 valandos ir 57 minutes, ne 03:00 UTC
Prognozė galioja nuo 14 metu 06 UTC su 15 metu 06 UTC
Vėjas 5 kt iš Vakarų
Matomumas 10 km arba daugiau
Išsisklaidę debesys ne aukštis 3500 ft
Tapsmas
nuo 14 metu 18 UTC su 14 metu 20 UTC
Išsisklaidę debesys ne aukštis 2000 ft
Tapsmas
nuo 14 metu 20 UTC su 14 metu 22 UTC
Vėjas 3 kt iš Vakarų/Pietvakarių
Su prošvaistėmis ne aukštis 1800 ft

TAF: SBFL 140300Z 1406/1506 27005KT 9999 SCT035 TX21/1418Z TN15/1506Z BECMG 1418/1420 SCT020 BECMG 1420/1422 25003KT BKN018 RMK PED

Orai ataskaitas ir orų prognozės (METAR, TAF).

turimą stotys yra geltonos ir raudonos taškus žemėlapyje.

Perkelti pele per norėdami pamatyti stoties vardą.

Tada spustelėkite, norėdami matyti oro stebėjimo ir prognozės.

Norėdami pakeisti žemėlapį: spustelėkite ant žalios mygtukų su juodo kryžiaus žemyn,; žalią mygtuką su brūkšneliu, jei norite nutolinti; arba žalių rodyklių gretimoms žemėlapius.


METAR-TAF: